createdAt,value
2023-05-01T00:02:24.193Z,64.50
2023-05-01T00:04:50.945Z,64.60
2023-05-01T00:07:17.587Z,64.70
2023-05-01T00:09:44.209Z,64.70
2023-05-01T00:12:11.562Z,64.70
2023-05-01T00:14:38.204Z,64.70
2023-05-01T00:17:04.880Z,64.80
2023-05-01T00:19:32.397Z,64.90
2023-05-01T00:21:59.045Z,64.90
2023-05-01T00:24:25.632Z,65.00
2023-05-01T00:26:52.280Z,65.10
2023-05-01T00:29:18.915Z,65.20
2023-05-01T00:31:45.852Z,65.30
2023-05-01T00:34:12.644Z,65.30
2023-05-01T00:36:39.617Z,65.40
2023-05-01T00:39:08.989Z,65.50
2023-05-01T00:41:36.158Z,65.50
2023-05-01T00:44:03.230Z,65.50
2023-05-01T00:46:30.953Z,65.50
2023-05-01T00:48:58.378Z,65.60
2023-05-01T00:51:27.311Z,65.60
2023-05-01T00:53:54.363Z,65.60
2023-05-01T00:56:21.418Z,65.70
2023-05-01T00:58:53.822Z,65.80
2023-05-01T01:01:24.018Z,65.90
2023-05-01T01:03:54.700Z,66.00
2023-05-01T01:07:05.399Z,66.00
2023-05-01T01:09:56.270Z,66.10
2023-05-01T01:13:02.383Z,66.10
2023-05-01T01:15:39.947Z,66.10
2023-05-01T01:18:18.280Z,66.00
2023-05-01T01:21:19.450Z,66.00
2023-05-01T01:24:08.026Z,66.10
2023-05-01T01:27:13.178Z,66.20
2023-05-01T01:29:59.312Z,66.20
2023-05-01T01:33:01.208Z,66.20
2023-05-01T01:35:29.751Z,66.30
2023-05-01T01:38:02.138Z,66.20
2023-05-01T01:40:44.739Z,66.20
2023-05-01T01:43:15.785Z,66.30
2023-05-01T01:45:46.169Z,66.40
2023-05-01T01:48:22.620Z,66.40
2023-05-01T01:50:49.802Z,66.50
2023-05-01T01:53:18.481Z,66.40
2023-05-01T01:55:47.414Z,66.50
2023-05-01T01:58:17.009Z,66.60
2023-05-01T02:00:45.451Z,66.60
2023-05-01T02:03:14.930Z,66.70
2023-05-01T02:05:43.272Z,66.80
2023-05-01T02:08:11.525Z,66.80
2023-05-01T02:10:40.114Z,66.80
2023-05-01T02:13:07.258Z,66.80
2023-05-01T02:15:34.692Z,66.80
2023-05-01T02:18:05.436Z,66.90
2023-05-01T02:20:33.407Z,67.00
2023-05-01T02:23:00.432Z,66.90
2023-05-01T02:25:31.589Z,67.00
2023-05-01T02:28:02.628Z,67.00
2023-05-01T02:30:29.262Z,67.00
2023-05-01T02:32:57.717Z,67.00
2023-05-01T02:35:24.504Z,67.00
2023-05-01T02:37:51.432Z,67.00
2023-05-01T02:40:18.603Z,67.10
2023-05-01T02:42:47.398Z,67.10
2023-05-01T02:45:23.578Z,67.00
2023-05-01T02:47:54.468Z,67.10
2023-05-01T02:50:22.737Z,67.00
2023-05-01T02:52:50.070Z,67.00
2023-05-01T02:55:17.430Z,67.00
2023-05-01T02:57:44.109Z,67.00
2023-05-01T03:00:13.836Z,67.00
2023-05-01T03:02:41.180Z,67.10
2023-05-01T03:05:08.286Z,67.20
2023-05-01T03:07:35.356Z,67.30
2023-05-01T03:10:07.730Z,67.30
2023-05-01T03:12:34.509Z,67.40
2023-05-01T03:15:01.147Z,67.40
2023-05-01T03:17:27.866Z,67.50
2023-05-01T03:19:54.870Z,67.60
2023-05-01T03:22:21.831Z,67.50
2023-05-01T03:24:48.474Z,67.70
2023-05-01T03:27:15.030Z,67.70
2023-05-01T03:29:41.668Z,67.80
2023-05-01T03:32:08.265Z,67.80
2023-05-01T03:34:35.524Z,67.80
2023-05-01T03:37:02.149Z,67.80
2023-05-01T03:39:28.833Z,67.80
2023-05-01T03:41:55.418Z,67.90
2023-05-01T03:44:22.324Z,68.00
2023-05-01T03:46:48.949Z,67.90
2023-05-01T03:49:15.602Z,67.90
2023-05-01T03:51:42.272Z,67.80
2023-05-01T03:54:09.300Z,67.80
2023-05-01T03:56:36.910Z,67.70
2023-05-01T03:59:03.998Z,67.80
2023-05-01T04:01:33.462Z,67.80
2023-05-01T04:04:00.231Z,67.90
2023-05-01T04:06:27.036Z,67.80
2023-05-01T04:08:54.069Z,67.80
2023-05-01T04:11:21.093Z,67.80
2023-05-01T04:13:48.270Z,67.90
2023-05-01T04:16:14.958Z,68.00
2023-05-01T04:18:41.597Z,68.00
2023-05-01T04:21:08.622Z,68.00
2023-05-01T04:23:35.200Z,68.00
2023-05-01T04:26:01.846Z,68.00
2023-05-01T04:28:30.946Z,68.00
2023-05-01T04:30:58.072Z,68.10
2023-05-01T04:33:24.768Z,68.20
2023-05-01T04:35:51.408Z,68.10
2023-05-01T04:38:18.045Z,68.10
2023-05-01T04:40:45.008Z,68.10
2023-05-01T04:43:11.753Z,68.00
2023-05-01T04:45:38.905Z,67.80
2023-05-01T04:48:06.037Z,67.80
2023-05-01T04:50:33.169Z,67.80
2023-05-01T04:52:59.748Z,67.70
2023-05-01T04:55:26.411Z,67.70
2023-05-01T04:57:53.087Z,67.70
2023-05-01T05:00:20.698Z,67.80
2023-05-01T05:02:47.395Z,67.80
2023-05-01T05:05:14.169Z,67.80
2023-05-01T05:07:40.882Z,67.80
2023-05-01T05:10:07.858Z,67.70
2023-05-01T05:12:34.417Z,67.60
2023-05-01T05:15:00.969Z,67.50
2023-05-01T05:17:27.671Z,67.50
2023-05-01T05:19:54.697Z,67.60
2023-05-01T05:22:21.766Z,67.50
2023-05-01T05:24:54.582Z,67.40
2023-05-01T05:27:21.276Z,67.40
2023-05-01T05:29:47.848Z,67.40
2023-05-01T05:32:14.839Z,67.40
2023-05-01T05:34:41.484Z,67.40
2023-05-01T05:37:08.590Z,67.30
2023-05-01T05:39:35.201Z,67.10
2023-05-01T05:42:01.836Z,67.10
2023-05-01T05:44:28.401Z,67.20
2023-05-01T05:46:54.967Z,67.20
2023-05-01T05:49:21.585Z,67.10
2023-05-01T05:51:48.245Z,67.00
2023-05-01T05:54:14.833Z,67.00
2023-05-01T05:56:41.450Z,66.90
2023-05-01T05:59:08.503Z,66.80
2023-05-01T06:01:37.301Z,66.90
2023-05-01T06:04:04.005Z,66.90
2023-05-01T06:06:31.459Z,66.80
2023-05-01T06:08:58.449Z,66.70
2023-05-01T06:11:25.112Z,66.60
2023-05-01T06:13:51.753Z,66.40
2023-05-01T06:16:18.613Z,66.40
2023-05-01T06:18:45.947Z,66.40
2023-05-01T06:21:13.024Z,66.10
2023-05-01T06:23:39.971Z,65.80
2023-05-01T06:26:07.948Z,65.60
2023-05-01T06:28:34.875Z,66.30
2023-05-01T06:31:01.500Z,65.30
2023-05-01T06:33:28.123Z,65.00
2023-05-01T06:35:55.790Z,64.60
2023-05-01T06:38:22.706Z,64.40
2023-05-01T06:40:50.299Z,64.20
2023-05-01T06:43:16.947Z,63.90
2023-05-01T06:45:43.610Z,63.70
2023-05-01T06:48:10.348Z,63.60
2023-05-01T06:50:37.066Z,63.40
2023-05-01T06:53:04.271Z,63.20
2023-05-01T06:55:33.287Z,63.20
2023-05-01T06:58:02.660Z,63.00
2023-05-01T07:00:36.685Z,62.90
2023-05-01T07:03:04.108Z,62.90
2023-05-01T07:05:30.904Z,62.80
2023-05-01T07:08:01.201Z,62.50
2023-05-01T07:10:29.151Z,62.40
2023-05-01T07:12:55.787Z,62.40
2023-05-01T07:15:23.405Z,62.50
2023-05-01T07:17:50.826Z,62.30
2023-05-01T07:20:18.032Z,62.30
2023-05-01T07:22:44.663Z,62.30
2023-05-01T07:25:11.297Z,62.10
2023-05-01T07:27:37.927Z,61.90
2023-05-01T07:30:05.299Z,61.80
2023-05-01T07:32:33.135Z,61.60
2023-05-01T07:34:59.913Z,61.40
2023-05-01T07:37:27.041Z,61.10
2023-05-01T07:39:54.401Z,60.90
2023-05-01T07:42:21.130Z,60.90
2023-05-01T07:44:49.975Z,61.00
2023-05-01T07:47:16.592Z,61.00
2023-05-01T07:49:43.262Z,61.00
2023-05-01T07:52:10.849Z,60.90
2023-05-01T07:54:37.441Z,60.80
2023-05-01T07:57:06.384Z,60.90
2023-05-01T07:59:33.040Z,61.00
2023-05-01T08:01:59.748Z,61.10
2023-05-01T08:04:27.955Z,61.20
2023-05-01T08:06:54.633Z,61.10
2023-05-01T08:09:21.268Z,60.90
2023-05-01T08:11:47.828Z,60.80
2023-05-01T08:14:17.474Z,60.60
2023-05-01T08:16:44.409Z,60.40
2023-05-01T08:19:11.222Z,60.10
2023-05-01T08:21:37.866Z,60.00
2023-05-01T08:24:04.689Z,60.00
2023-05-01T08:26:31.300Z,60.00
2023-05-01T08:28:57.917Z,59.70
2023-05-01T08:31:25.340Z,59.50
2023-05-01T08:33:51.983Z,59.40
2023-05-01T08:36:20.698Z,59.40
2023-05-01T08:38:47.954Z,59.50
2023-05-01T08:41:21.685Z,59.60
2023-05-01T08:43:48.972Z,59.50
2023-05-01T08:46:33.689Z,59.80
2023-05-01T08:49:01.959Z,60.10
2023-05-01T08:51:31.131Z,60.30
2023-05-01T08:53:59.821Z,60.40
2023-05-01T08:56:26.745Z,60.40
2023-05-01T08:58:55.581Z,60.50
2023-05-01T09:01:23.300Z,60.50
2023-05-01T09:03:52.591Z,60.30
2023-05-01T09:06:20.232Z,60.00
2023-05-01T09:08:46.890Z,59.70
2023-05-01T09:11:13.560Z,59.30
2023-05-01T09:13:40.372Z,59.20
2023-05-01T09:16:07.506Z,59.50
2023-05-01T09:18:35.048Z,59.60
2023-05-01T09:21:03.442Z,59.60
2023-05-01T09:23:30.080Z,59.50
2023-05-01T09:25:58.637Z,59.50
2023-05-01T09:28:47.964Z,59.20
2023-05-01T09:31:22.899Z,58.60
2023-05-01T09:34:01.248Z,58.20
2023-05-01T09:36:30.888Z,57.90
2023-05-01T09:38:58.466Z,57.60
2023-05-01T09:41:25.164Z,57.30
2023-05-01T09:43:53.805Z,56.80
2023-05-01T09:46:22.632Z,56.50
2023-05-01T09:48:54.973Z,56.20
2023-05-01T09:51:22.063Z,55.90
2023-05-01T09:53:49.329Z,55.10
2023-05-01T09:56:16.008Z,54.90
2023-05-01T09:58:42.741Z,54.90
2023-05-01T10:01:09.387Z,54.80
2023-05-01T10:03:36.306Z,54.60
2023-05-01T10:06:04.143Z,54.40
2023-05-01T10:08:48.544Z,54.50
2023-05-01T10:11:15.576Z,53.70
2023-05-01T10:13:42.626Z,54.00
2023-05-01T10:16:29.064Z,53.90
2023-05-01T10:18:59.509Z,53.10
2023-05-01T10:21:27.795Z,53.20
2023-05-01T10:23:55.652Z,52.90
2023-05-01T10:26:22.286Z,52.20
2023-05-01T10:28:49.734Z,51.50
2023-05-01T10:31:16.931Z,51.30
2023-05-01T10:33:45.251Z,51.30
2023-05-01T10:36:18.964Z,50.90
2023-05-01T10:38:48.301Z,50.60
2023-05-01T10:41:16.597Z,50.50
2023-05-01T10:43:44.001Z,50.70
2023-05-01T10:46:16.992Z,50.70
2023-05-01T10:48:46.359Z,50.70
2023-05-01T10:51:20.071Z,50.30
2023-05-01T10:53:48.243Z,50.00
2023-05-01T10:56:30.084Z,50.00
2023-05-01T10:59:04.981Z,49.70
2023-05-01T11:01:42.904Z,50.10
2023-05-01T11:04:21.810Z,50.00
2023-05-01T11:07:10.890Z,49.70
2023-05-01T11:09:43.766Z,49.80
2023-05-01T11:12:12.845Z,49.90
2023-05-01T11:14:55.759Z,50.10
2023-05-01T11:17:41.251Z,49.80
2023-05-01T11:20:08.765Z,50.00
2023-05-01T11:22:36.948Z,50.00
2023-05-01T11:25:04.925Z,49.60
2023-05-01T11:27:31.969Z,49.60
2023-05-01T11:29:59.637Z,49.40
2023-05-01T11:32:30.294Z,49.30
2023-05-01T11:34:57.764Z,49.30
2023-05-01T11:37:40.866Z,49.00
2023-05-01T11:40:25.866Z,48.80
2023-05-01T11:43:01.874Z,48.90
2023-05-01T11:45:29.063Z,48.80
2023-05-01T11:47:56.203Z,48.90
2023-05-01T11:50:22.981Z,49.10
2023-05-01T11:52:54.295Z,49.30
2023-05-01T11:55:34.484Z,49.00
2023-05-01T11:58:02.226Z,48.90
2023-05-01T12:00:36.556Z,49.10
2023-05-01T12:03:08.556Z,49.20
2023-05-01T12:05:38.148Z,49.10
2023-05-01T12:08:19.053Z,48.80
2023-05-01T12:10:49.205Z,48.10
2023-05-01T12:13:16.646Z,47.80
2023-05-01T12:15:46.009Z,48.00
2023-05-01T12:18:14.505Z,48.00
2023-05-01T12:20:51.883Z,48.50
2023-05-01T12:23:20.091Z,49.20
2023-05-01T12:25:47.009Z,50.30
2023-05-01T12:28:20.217Z,49.60
2023-05-01T12:30:49.142Z,49.90
2023-05-01T12:33:18.766Z,50.00
2023-05-01T12:35:47.543Z,50.30
2023-05-01T12:38:18.027Z,50.60
2023-05-01T12:40:56.649Z,51.10
2023-05-01T12:43:34.309Z,51.70
2023-05-01T12:46:02.847Z,51.30
2023-05-01T12:48:34.179Z,51.70
2023-05-01T12:51:01.216Z,51.90
2023-05-01T12:53:28.784Z,52.40
2023-05-01T12:55:57.858Z,52.80
2023-05-01T12:58:35.238Z,53.10
2023-05-01T13:01:02.025Z,53.40
2023-05-01T13:03:30.274Z,53.50
2023-05-01T13:06:01.990Z,53.70
2023-05-01T13:08:34.031Z,54.40
2023-05-01T13:11:09.095Z,54.30
2023-05-01T13:13:37.352Z,54.70
2023-05-01T13:16:12.792Z,55.30
2023-05-01T13:18:51.341Z,55.60
2023-05-01T13:21:21.429Z,55.90
2023-05-01T13:23:56.285Z,56.30
2023-05-01T13:26:41.230Z,57.00
2023-05-01T13:29:14.915Z,57.20
2023-05-01T13:31:45.331Z,57.80
2023-05-01T13:34:20.664Z,58.20
2023-05-01T13:36:47.228Z,58.60
2023-05-01T13:39:21.283Z,58.80
2023-05-01T13:41:51.649Z,59.00
2023-05-01T13:44:19.668Z,58.70
2023-05-01T13:46:47.028Z,58.40
2023-05-01T13:49:14.617Z,58.50
2023-05-01T13:51:46.569Z,57.90
2023-05-01T13:54:13.967Z,57.40
2023-05-01T13:56:41.297Z,57.20
2023-05-01T13:59:08.724Z,56.80
2023-05-01T14:01:45.975Z,56.40
2023-05-01T14:04:18.071Z,56.10
2023-05-01T14:06:47.022Z,56.10
2023-05-01T14:09:17.227Z,56.30
2023-05-01T14:11:46.673Z,56.20
2023-05-01T14:14:17.824Z,55.80
2023-05-01T14:16:52.404Z,56.00
2023-05-01T14:19:19.131Z,56.30
2023-05-01T14:21:46.839Z,56.00
2023-05-01T14:24:15.124Z,54.70
2023-05-01T14:26:44.247Z,54.30
2023-05-01T14:29:26.736Z,52.90
2023-05-01T14:31:55.369Z,51.90
2023-05-01T14:34:22.783Z,51.60
2023-05-01T14:36:49.533Z,50.40
2023-05-01T14:39:16.738Z,49.60
2023-05-01T14:41:43.395Z,49.30
2023-05-01T14:44:19.358Z,48.70
2023-05-01T14:46:51.264Z,47.80
2023-05-01T14:49:24.356Z,47.30
2023-05-01T14:51:52.307Z,46.90
2023-05-01T14:54:19.654Z,47.10
2023-05-01T14:56:48.285Z,47.60
2023-05-01T14:59:15.917Z,47.80
2023-05-01T15:01:43.838Z,47.90
2023-05-01T15:04:11.793Z,48.20
2023-05-01T15:06:38.734Z,48.30
2023-05-01T15:09:05.501Z,48.50
2023-05-01T15:11:32.149Z,48.90
2023-05-01T15:13:58.792Z,49.30
2023-05-01T15:16:25.501Z,49.40
2023-05-01T15:18:52.137Z,49.70
2023-05-01T15:21:18.898Z,50.10
2023-05-01T15:23:49.118Z,50.30
2023-05-01T15:26:16.753Z,50.30
2023-05-01T15:28:43.790Z,50.20
2023-05-01T15:31:10.579Z,50.20
2023-05-01T15:33:37.233Z,50.40
2023-05-01T15:36:04.621Z,50.20
2023-05-01T15:38:31.212Z,50.50
2023-05-01T15:40:57.828Z,50.70
2023-05-01T15:43:24.698Z,50.60
2023-05-01T15:45:52.109Z,50.60
2023-05-01T15:48:19.341Z,50.70
2023-05-01T15:50:48.836Z,50.90
2023-05-01T15:53:16.957Z,51.00
2023-05-01T15:55:43.777Z,51.20
2023-05-01T15:58:10.351Z,51.40
2023-05-01T16:00:39.510Z,51.50
2023-05-01T16:03:08.485Z,51.60
2023-05-01T16:05:37.093Z,51.90
2023-05-01T16:08:07.066Z,52.00
2023-05-01T16:10:37.216Z,52.20
2023-05-01T16:13:06.248Z,52.40
2023-05-01T16:15:33.441Z,52.50
2023-05-01T16:18:04.317Z,52.60
2023-05-01T16:20:35.307Z,52.90
2023-05-01T16:23:02.200Z,53.20
2023-05-01T16:25:28.967Z,53.50
2023-05-01T16:27:57.046Z,53.60
2023-05-01T16:30:27.606Z,53.50
2023-05-01T16:32:54.416Z,53.20
2023-05-01T16:35:27.230Z,53.10
2023-05-01T16:37:54.968Z,53.40
2023-05-01T16:40:22.243Z,53.70
2023-05-01T16:42:51.743Z,54.20
2023-05-01T16:45:18.815Z,54.50
2023-05-01T16:47:45.516Z,54.80
2023-05-01T16:50:12.447Z,55.10
2023-05-01T16:52:42.075Z,55.30
2023-05-01T16:55:09.948Z,55.60
2023-05-01T16:57:36.620Z,56.10
2023-05-01T17:00:05.137Z,56.30
2023-05-01T17:02:32.755Z,56.70
2023-05-01T17:04:59.456Z,56.80
2023-05-01T17:07:26.110Z,57.00
2023-05-01T17:09:52.834Z,57.20
2023-05-01T17:12:19.493Z,57.40
2023-05-01T17:14:46.492Z,57.70
2023-05-01T17:17:13.331Z,57.90
2023-05-01T17:19:40.172Z,58.00
2023-05-01T17:22:09.610Z,58.20
2023-05-01T17:24:36.587Z,58.50
2023-05-01T17:27:03.580Z,58.70
2023-05-01T17:29:30.246Z,58.90
2023-05-01T17:31:56.990Z,59.00
2023-05-01T17:34:23.681Z,59.00
2023-05-01T17:36:53.094Z,59.00
2023-05-01T17:39:21.712Z,59.20
2023-05-01T17:41:51.497Z,59.50
2023-05-01T17:44:18.119Z,59.60
2023-05-01T17:46:44.863Z,60.50
2023-05-01T17:49:11.522Z,59.80
2023-05-01T17:51:38.233Z,59.80
2023-05-01T17:54:23.580Z,59.80
2023-05-01T17:56:50.279Z,59.60
2023-05-01T17:59:17.315Z,59.20
2023-05-01T18:01:44.224Z,59.00
2023-05-01T18:04:11.388Z,59.00
2023-05-01T18:06:38.280Z,59.00
2023-05-01T18:09:04.968Z,59.00
2023-05-01T18:11:31.622Z,59.30
2023-05-01T18:13:58.272Z,59.40
2023-05-01T18:16:24.964Z,59.50
2023-05-01T18:18:52.987Z,59.60
2023-05-01T18:21:19.798Z,60.20
2023-05-01T18:23:48.382Z,59.80
2023-05-01T18:26:16.478Z,59.90
2023-05-01T18:28:43.116Z,60.00
2023-05-01T18:31:09.795Z,60.20
2023-05-01T18:33:36.460Z,60.40
2023-05-01T18:36:03.252Z,60.50
2023-05-01T18:38:29.913Z,60.70
2023-05-01T18:40:56.603Z,60.70
2023-05-01T18:43:23.195Z,60.80
2023-05-01T18:45:49.810Z,60.80
2023-05-01T18:48:16.551Z,60.70
2023-05-01T18:50:47.220Z,60.70
2023-05-01T18:53:17.958Z,60.70
2023-05-01T18:55:44.624Z,60.60
2023-05-01T18:58:11.230Z,60.70
2023-05-01T19:00:38.719Z,60.80
2023-05-01T19:03:05.552Z,60.90
2023-05-01T19:05:32.475Z,61.10
2023-05-01T19:08:01.754Z,61.20
2023-05-01T19:10:28.428Z,61.40
2023-05-01T19:12:55.021Z,61.50
2023-05-01T19:15:21.766Z,61.60
2023-05-01T19:17:48.514Z,61.70
2023-05-01T19:20:15.853Z,61.90
2023-05-01T19:22:42.564Z,62.00
2023-05-01T19:25:09.643Z,62.20
2023-05-01T19:27:36.202Z,62.30
2023-05-01T19:30:03.290Z,62.40
2023-05-01T19:32:29.930Z,62.50
2023-05-01T19:34:56.927Z,62.70
2023-05-01T19:37:24.207Z,62.80
2023-05-01T19:39:51.004Z,63.10
2023-05-01T19:42:18.132Z,63.10
2023-05-01T19:44:44.873Z,63.10
2023-05-01T19:47:11.725Z,63.30
2023-05-01T19:49:38.901Z,63.50
2023-05-01T19:52:06.279Z,63.80
2023-05-01T19:54:33.025Z,63.90
2023-05-01T19:56:59.674Z,64.00
2023-05-01T19:59:26.733Z,64.20
2023-05-01T20:01:53.816Z,64.30
2023-05-01T20:04:22.920Z,64.50
2023-05-01T20:06:50.174Z,64.60
2023-05-01T20:09:17.159Z,64.80
2023-05-01T20:11:43.801Z,65.00
2023-05-01T20:14:10.457Z,65.30
2023-05-01T20:16:37.192Z,65.60
2023-05-01T20:19:03.983Z,65.90
2023-05-01T20:21:31.088Z,66.20
2023-05-01T20:23:57.674Z,66.40
2023-05-01T20:26:24.757Z,66.60
2023-05-01T20:28:52.226Z,66.70
2023-05-01T20:31:18.943Z,66.90
2023-05-01T20:33:45.997Z,67.10
2023-05-01T20:36:12.652Z,67.20
2023-05-01T20:38:43.373Z,67.30
2023-05-01T20:41:10.107Z,67.50
2023-05-01T20:43:36.880Z,67.60
2023-05-01T20:46:03.455Z,67.70
2023-05-01T20:48:30.172Z,67.80
2023-05-01T20:50:56.755Z,67.90
2023-05-01T20:53:23.526Z,68.10
2023-05-01T20:55:50.138Z,68.30
2023-05-01T20:58:16.805Z,68.40
2023-05-01T21:00:44.071Z,68.60
2023-05-01T21:03:10.988Z,68.70
2023-05-01T21:05:37.790Z,68.90
2023-05-01T21:08:04.517Z,68.90
2023-05-01T21:10:31.552Z,69.10
2023-05-01T21:12:58.514Z,69.20
2023-05-01T21:15:26.776Z,69.30
2023-05-01T21:17:53.482Z,69.50
2023-05-01T21:20:31.613Z,69.50
2023-05-01T21:23:00.154Z,69.60
2023-05-01T21:25:28.063Z,69.60
2023-05-01T21:27:54.757Z,69.70
2023-05-01T21:30:34.261Z,69.80
2023-05-01T21:33:02.477Z,70.00
2023-05-01T21:35:30.306Z,70.10
2023-05-01T21:37:57.736Z,70.00
2023-05-01T21:40:24.572Z,70.00
2023-05-01T21:42:53.731Z,70.10
2023-05-01T21:45:20.695Z,70.10
2023-05-01T21:47:49.211Z,70.10
2023-05-01T21:50:17.554Z,70.00
2023-05-01T21:52:45.912Z,70.00
2023-05-01T21:55:21.584Z,70.00
2023-05-01T21:57:50.186Z,70.00
2023-05-01T22:00:18.912Z,69.90
2023-05-01T22:02:48.147Z,69.90
2023-05-01T22:05:18.403Z,69.90
2023-05-01T22:07:46.776Z,69.90
2023-05-01T22:10:15.767Z,69.90
2023-05-01T22:12:43.590Z,69.90
2023-05-01T22:15:12.063Z,69.90
2023-05-01T22:17:39.586Z,69.90
2023-05-01T22:20:07.322Z,70.00
2023-05-01T22:22:38.770Z,70.00
2023-05-01T22:25:06.055Z,70.10
2023-05-01T22:27:33.373Z,70.10
2023-05-01T22:30:00.365Z,70.10
2023-05-01T22:32:28.128Z,70.00
2023-05-01T22:34:55.094Z,70.10
2023-05-01T22:37:21.814Z,70.20
2023-05-01T22:39:48.412Z,70.20
2023-05-01T22:42:14.972Z,70.20
2023-05-01T22:44:41.768Z,70.20
2023-05-01T22:47:08.485Z,70.30
2023-05-01T22:49:35.324Z,70.30
2023-05-01T22:52:02.475Z,70.30
2023-05-01T22:54:29.143Z,70.30
2023-05-01T22:56:56.170Z,70.40
2023-05-01T22:59:22.834Z,70.60
2023-05-01T23:01:49.827Z,70.60
2023-05-01T23:04:16.672Z,70.60
2023-05-01T23:06:44.462Z,70.60
2023-05-01T23:09:11.782Z,70.60
2023-05-01T23:11:40.656Z,70.70
2023-05-01T23:14:07.516Z,70.80
2023-05-01T23:16:41.410Z,70.90
2023-05-01T23:19:20.042Z,71.00
2023-05-01T23:21:47.158Z,71.20
2023-05-01T23:24:17.905Z,71.30
2023-05-01T23:26:44.877Z,71.30
2023-05-01T23:29:13.030Z,71.30
2023-05-01T23:31:47.607Z,71.40
2023-05-01T23:34:18.359Z,71.60
2023-05-01T23:36:46.322Z,71.60
2023-05-01T23:39:13.546Z,71.70
2023-05-01T23:41:40.674Z,71.80
2023-05-01T23:44:07.951Z,71.90
2023-05-01T23:46:35.267Z,72.00
2023-05-01T23:49:02.114Z,72.10
2023-05-01T23:51:28.955Z,72.20
2023-05-01T23:53:55.539Z,72.30
2023-05-01T23:56:22.197Z,72.40
2023-05-01T23:58:48.772Z,72.40
